sensor_id;sensor_type;location;lat;lon;timestamp;temperature;humidity
48208;DHT22;33997;53.278;9.708;2023-11-21T00:00:49;8.80;99.90
48208;DHT22;33997;53.278;9.708;2023-11-21T00:03:15;8.80;99.90
48208;DHT22;33997;53.278;9.708;2023-11-21T00:05:41;8.80;99.90
48208;DHT22;33997;53.278;9.708;2023-11-21T00:08:07;8.80;99.90
48208;DHT22;33997;53.278;9.708;2023-11-21T00:10:33;8.80;99.90
48208;DHT22;33997;53.278;9.708;2023-11-21T00:12:59;8.80;99.90
48208;DHT22;33997;53.278;9.708;2023-11-21T00:15:24;8.90;99.90
48208;DHT22;33997;53.278;9.708;2023-11-21T00:17:50;8.90;99.90
48208;DHT22;33997;53.278;9.708;2023-11-21T00:20:15;8.90;99.90
48208;DHT22;33997;53.278;9.708;2023-11-21T00:22:41;8.90;99.90
48208;DHT22;33997;53.278;9.708;2023-11-21T00:25:07;8.90;99.90
48208;DHT22;33997;53.278;9.708;2023-11-21T00:27:34;8.90;99.90
48208;DHT22;33997;53.278;9.708;2023-11-21T00:30:00;8.90;99.90
48208;DHT22;33997;53.278;9.708;2023-11-21T00:32:25;8.90;99.90
48208;DHT22;33997;53.278;9.708;2023-11-21T00:34:51;8.80;99.90
48208;DHT22;33997;53.278;9.708;2023-11-21T00:37:16;8.90;99.90
48208;DHT22;33997;53.278;9.708;2023-11-21T00:39:42;8.80;99.90
48208;DHT22;33997;53.278;9.708;2023-11-21T00:42:07;8.90;99.90
48208;DHT22;33997;53.278;9.708;2023-11-21T00:44:33;8.90;99.90
48208;DHT22;33997;53.278;9.708;2023-11-21T00:46:59;8.80;99.90
48208;DHT22;33997;53.278;9.708;2023-11-21T00:49:25;8.80;99.90
48208;DHT22;33997;53.278;9.708;2023-11-21T00:51:50;8.80;99.90
48208;DHT22;33997;53.278;9.708;2023-11-21T00:54:16;8.80;99.90
48208;DHT22;33997;53.278;9.708;2023-11-21T00:56:42;8.80;99.90
48208;DHT22;33997;53.278;9.708;2023-11-21T00:59:08;8.80;99.90
48208;DHT22;33997;53.278;9.708;2023-11-21T01:01:33;8.80;99.90
48208;DHT22;33997;53.278;9.708;2023-11-21T01:03:59;8.80;99.90
48208;DHT22;33997;53.278;9.708;2023-11-21T01:06:25;8.80;99.90
48208;DHT22;33997;53.278;9.708;2023-11-21T01:08:51;8.80;99.90
48208;DHT22;33997;53.278;9.708;2023-11-21T01:11:16;8.80;99.90
48208;DHT22;33997;53.278;9.708;2023-11-21T01:13:42;8.80;99.90
48208;DHT22;33997;53.278;9.708;2023-11-21T01:16:10;8.80;99.90
48208;DHT22;33997;53.278;9.708;2023-11-21T01:18:36;8.80;99.90
48208;DHT22;33997;53.278;9.708;2023-11-21T01:21:01;8.80;99.90
48208;DHT22;33997;53.278;9.708;2023-11-21T01:23:27;8.80;99.90
48208;DHT22;33997;53.278;9.708;2023-11-21T01:25:56;8.80;99.90
48208;DHT22;33997;53.278;9.708;2023-11-21T01:28:22;8.70;99.90
48208;DHT22;33997;53.278;9.708;2023-11-21T01:30:48;8.70;99.90
48208;DHT22;33997;53.278;9.708;2023-11-21T01:33:14;8.70;99.90
48208;DHT22;33997;53.278;9.708;2023-11-21T01:35:41;8.70;99.90
48208;DHT22;33997;53.278;9.708;2023-11-21T01:38:06;8.60;99.90
48208;DHT22;33997;53.278;9.708;2023-11-21T01:40:33;8.50;99.90
48208;DHT22;33997;53.278;9.708;2023-11-21T01:42:59;8.50;99.90
48208;DHT22;33997;53.278;9.708;2023-11-21T01:45:24;8.50;99.90
48208;DHT22;33997;53.278;9.708;2023-11-21T01:47:50;8.40;99.90
48208;DHT22;33997;53.278;9.708;2023-11-21T01:50:17;8.40;99.90
48208;DHT22;33997;53.278;9.708;2023-11-21T01:52:45;8.40;99.90
48208;DHT22;33997;53.278;9.708;2023-11-21T01:55:11;8.30;99.90
48208;DHT22;33997;53.278;9.708;2023-11-21T01:57:37;8.30;99.90
48208;DHT22;33997;53.278;9.708;2023-11-21T02:00:04;8.30;99.90
48208;DHT22;33997;53.278;9.708;2023-11-21T02:02:42;8.20;99.90
48208;DHT22;33997;53.278;9.708;2023-11-21T02:05:07;8.20;99.90
48208;DHT22;33997;53.278;9.708;2023-11-21T02:07:34;8.10;99.90
48208;DHT22;33997;53.278;9.708;2023-11-21T02:10:00;8.00;99.90
48208;DHT22;33997;53.278;9.708;2023-11-21T02:12:25;7.90;99.90
48208;DHT22;33997;53.278;9.708;2023-11-21T02:14:51;7.90;99.90
48208;DHT22;33997;53.278;9.708;2023-11-21T02:17:17;7.80;99.90
48208;DHT22;33997;53.278;9.708;2023-11-21T02:19:43;7.80;99.90
48208;DHT22;33997;53.278;9.708;2023-11-21T02:22:10;7.70;99.90
48208;DHT22;33997;53.278;9.708;2023-11-21T02:24:37;7.60;99.90
48208;DHT22;33997;53.278;9.708;2023-11-21T02:27:02;7.60;99.90
48208;DHT22;33997;53.278;9.708;2023-11-21T02:29:28;7.60;99.90
48208;DHT22;33997;53.278;9.708;2023-11-21T02:31:54;7.50;99.90
48208;DHT22;33997;53.278;9.708;2023-11-21T02:34:21;7.50;99.90
48208;DHT22;33997;53.278;9.708;2023-11-21T02:36:47;7.50;99.90
48208;DHT22;33997;53.278;9.708;2023-11-21T02:39:15;7.40;99.90
48208;DHT22;33997;53.278;9.708;2023-11-21T02:41:40;7.40;99.90
48208;DHT22;33997;53.278;9.708;2023-11-21T02:44:06;7.30;99.90
48208;DHT22;33997;53.278;9.708;2023-11-21T02:46:36;7.30;99.90
48208;DHT22;33997;53.278;9.708;2023-11-21T02:49:05;7.20;99.90
48208;DHT22;33997;53.278;9.708;2023-11-21T02:51:35;7.20;99.90
48208;DHT22;33997;53.278;9.708;2023-11-21T02:54:01;7.20;99.90
48208;DHT22;33997;53.278;9.708;2023-11-21T02:56:29;7.10;99.90
48208;DHT22;33997;53.278;9.708;2023-11-21T02:58:59;7.10;99.90
48208;DHT22;33997;53.278;9.708;2023-11-21T03:01:25;7.00;99.90
48208;DHT22;33997;53.278;9.708;2023-11-21T03:03:50;7.00;99.90
48208;DHT22;33997;53.278;9.708;2023-11-21T03:06:19;7.00;99.90
48208;DHT22;33997;53.278;9.708;2023-11-21T03:08:45;7.00;99.90
48208;DHT22;33997;53.278;9.708;2023-11-21T03:11:10;7.00;99.90
48208;DHT22;33997;53.278;9.708;2023-11-21T03:13:36;7.00;99.90
48208;DHT22;33997;53.278;9.708;2023-11-21T03:16:01;6.90;99.90
48208;DHT22;33997;53.278;9.708;2023-11-21T03:18:26;6.90;99.90
48208;DHT22;33997;53.278;9.708;2023-11-21T03:20:54;6.90;99.90
48208;DHT22;33997;53.278;9.708;2023-11-21T03:23:20;6.90;99.90
48208;DHT22;33997;53.278;9.708;2023-11-21T03:25:45;6.80;99.90
48208;DHT22;33997;53.278;9.708;2023-11-21T03:28:11;6.70;99.90
48208;DHT22;33997;53.278;9.708;2023-11-21T03:30:36;6.60;99.90
48208;DHT22;33997;53.278;9.708;2023-11-21T03:33:02;6.60;99.90
48208;DHT22;33997;53.278;9.708;2023-11-21T03:35:27;6.50;99.90
48208;DHT22;33997;53.278;9.708;2023-11-21T03:37:53;6.30;99.90
48208;DHT22;33997;53.278;9.708;2023-11-21T03:40:18;6.30;99.90
48208;DHT22;33997;53.278;9.708;2023-11-21T03:42:44;6.20;99.90
48208;DHT22;33997;53.278;9.708;2023-11-21T03:45:09;6.20;99.90
48208;DHT22;33997;53.278;9.708;2023-11-21T03:47:37;6.20;99.90
48208;DHT22;33997;53.278;9.708;2023-11-21T03:50:02;6.20;99.90
48208;DHT22;33997;53.278;9.708;2023-11-21T03:52:28;6.10;99.90
48208;DHT22;33997;53.278;9.708;2023-11-21T03:54:54;6.10;99.90
48208;DHT22;33997;53.278;9.708;2023-11-21T03:57:21;6.20;99.90
48208;DHT22;33997;53.278;9.708;2023-11-21T03:59:46;6.10;99.90
48208;DHT22;33997;53.278;9.708;2023-11-21T04:02:12;6.20;99.90
48208;DHT22;33997;53.278;9.708;2023-11-21T04:04:37;6.20;99.90
48208;DHT22;33997;53.278;9.708;2023-11-21T04:07:03;6.20;99.90
48208;DHT22;33997;53.278;9.708;2023-11-21T04:09:29;6.20;99.90
48208;DHT22;33997;53.278;9.708;2023-11-21T04:11:55;6.20;99.90
48208;DHT22;33997;53.278;9.708;2023-11-21T04:14:21;6.20;99.90
48208;DHT22;33997;53.278;9.708;2023-11-21T04:16:47;6.10;99.90
48208;DHT22;33997;53.278;9.708;2023-11-21T04:19:13;6.10;99.90
48208;DHT22;33997;53.278;9.708;2023-11-21T04:21:41;6.10;99.90
48208;DHT22;33997;53.278;9.708;2023-11-21T04:24:07;6.10;99.90
48208;DHT22;33997;53.278;9.708;2023-11-21T04:26:32;6.10;99.90
48208;DHT22;33997;53.278;9.708;2023-11-21T04:28:58;6.10;99.90
48208;DHT22;33997;53.278;9.708;2023-11-21T04:31:23;6.00;99.90
48208;DHT22;33997;53.278;9.708;2023-11-21T04:33:49;6.00;99.90
48208;DHT22;33997;53.278;9.708;2023-11-21T04:36:14;5.90;99.90
48208;DHT22;33997;53.278;9.708;2023-11-21T04:38:40;5.90;99.90
48208;DHT22;33997;53.278;9.708;2023-11-21T04:41:06;5.90;99.90
48208;DHT22;33997;53.278;9.708;2023-11-21T04:43:31;5.80;99.90
48208;DHT22;33997;53.278;9.708;2023-11-21T04:45:57;5.80;99.90
48208;DHT22;33997;53.278;9.708;2023-11-21T04:48:22;5.80;99.90
48208;DHT22;33997;53.278;9.708;2023-11-21T04:50:48;5.80;99.90
48208;DHT22;33997;53.278;9.708;2023-11-21T04:53:13;5.80;99.90
48208;DHT22;33997;53.278;9.708;2023-11-21T04:55:43;5.70;99.90
48208;DHT22;33997;53.278;9.708;2023-11-21T04:58:09;5.70;99.90
48208;DHT22;33997;53.278;9.708;2023-11-21T05:00:34;5.70;99.90
48208;DHT22;33997;53.278;9.708;2023-11-21T05:03:02;5.70;99.90
48208;DHT22;33997;53.278;9.708;2023-11-21T05:05:27;5.70;99.90
48208;DHT22;33997;53.278;9.708;2023-11-21T05:07:53;5.70;99.90
48208;DHT22;33997;53.278;9.708;2023-11-21T05:10:21;5.70;99.90
48208;DHT22;33997;53.278;9.708;2023-11-21T05:12:48;5.60;99.90
48208;DHT22;33997;53.278;9.708;2023-11-21T05:15:15;5.60;99.90
48208;DHT22;33997;53.278;9.708;2023-11-21T05:17:42;5.60;99.90
48208;DHT22;33997;53.278;9.708;2023-11-21T05:20:08;5.60;99.90
48208;DHT22;33997;53.278;9.708;2023-11-21T05:22:35;5.60;99.90
48208;DHT22;33997;53.278;9.708;2023-11-21T05:25:02;5.60;99.90
48208;DHT22;33997;53.278;9.708;2023-11-21T05:27:28;5.70;99.90
48208;DHT22;33997;53.278;9.708;2023-11-21T05:29:55;5.70;99.90
48208;DHT22;33997;53.278;9.708;2023-11-21T05:32:20;5.70;99.90
48208;DHT22;33997;53.278;9.708;2023-11-21T05:34:47;5.70;99.90
48208;DHT22;33997;53.278;9.708;2023-11-21T05:37:12;5.70;99.90
48208;DHT22;33997;53.278;9.708;2023-11-21T05:39:37;5.60;99.90
48208;DHT22;33997;53.278;9.708;2023-11-21T05:42:03;5.60;99.90
48208;DHT22;33997;53.278;9.708;2023-11-21T05:44:29;5.60;99.90
48208;DHT22;33997;53.278;9.708;2023-11-21T05:46:54;5.50;99.90
48208;DHT22;33997;53.278;9.708;2023-11-21T05:49:20;5.50;99.90
48208;DHT22;33997;53.278;9.708;2023-11-21T05:51:48;5.50;99.90
48208;DHT22;33997;53.278;9.708;2023-11-21T05:54:14;5.50;99.90
48208;DHT22;33997;53.278;9.708;2023-11-21T05:56:39;5.40;99.90
48208;DHT22;33997;53.278;9.708;2023-11-21T05:59:04;5.40;99.90
48208;DHT22;33997;53.278;9.708;2023-11-21T06:01:31;5.40;99.90
48208;DHT22;33997;53.278;9.708;2023-11-21T06:03:57;5.50;99.90
48208;DHT22;33997;53.278;9.708;2023-11-21T06:06:22;5.50;99.90
48208;DHT22;33997;53.278;9.708;2023-11-21T06:08:50;5.60;99.90
48208;DHT22;33997;53.278;9.708;2023-11-21T06:11:15;5.60;99.90
48208;DHT22;33997;53.278;9.708;2023-11-21T06:13:41;5.60;99.90
48208;DHT22;33997;53.278;9.708;2023-11-21T06:16:07;5.60;99.90
48208;DHT22;33997;53.278;9.708;2023-11-21T06:18:33;5.60;99.90
48208;DHT22;33997;53.278;9.708;2023-11-21T06:20:58;5.60;99.90
48208;DHT22;33997;53.278;9.708;2023-11-21T06:23:26;5.70;99.90
48208;DHT22;33997;53.278;9.708;2023-11-21T06:25:51;5.70;99.90
48208;DHT22;33997;53.278;9.708;2023-11-21T06:28:17;5.70;99.90
48208;DHT22;33997;53.278;9.708;2023-11-21T06:30:43;5.70;99.90
48208;DHT22;33997;53.278;9.708;2023-11-21T06:33:10;5.80;99.90
48208;DHT22;33997;53.278;9.708;2023-11-21T06:35:36;5.80;99.90
48208;DHT22;33997;53.278;9.708;2023-11-21T06:38:01;5.70;99.90
48208;DHT22;33997;53.278;9.708;2023-11-21T06:40:28;5.70;99.90
48208;DHT22;33997;53.278;9.708;2023-11-21T06:42:53;5.80;99.90
48208;DHT22;33997;53.278;9.708;2023-11-21T06:45:19;5.70;99.90
48208;DHT22;33997;53.278;9.708;2023-11-21T06:47:45;5.60;99.90
48208;DHT22;33997;53.278;9.708;2023-11-21T06:50:11;5.70;99.90
48208;DHT22;33997;53.278;9.708;2023-11-21T06:52:36;5.70;99.90
48208;DHT22;33997;53.278;9.708;2023-11-21T06:55:02;5.70;99.90
48208;DHT22;33997;53.278;9.708;2023-11-21T06:57:27;5.70;99.90
48208;DHT22;33997;53.278;9.708;2023-11-21T06:59:53;5.70;99.90
48208;DHT22;33997;53.278;9.708;2023-11-21T07:02:18;5.60;99.90
48208;DHT22;33997;53.278;9.708;2023-11-21T07:04:47;5.60;99.90
48208;DHT22;33997;53.278;9.708;2023-11-21T07:07:12;5.60;99.90
48208;DHT22;33997;53.278;9.708;2023-11-21T07:09:38;5.60;99.90
48208;DHT22;33997;53.278;9.708;2023-11-21T07:12:04;5.60;99.90
48208;DHT22;33997;53.278;9.708;2023-11-21T07:14:33;5.60;99.90
48208;DHT22;33997;53.278;9.708;2023-11-21T07:16:58;5.60;99.90
48208;DHT22;33997;53.278;9.708;2023-11-21T07:19:24;5.70;99.90
48208;DHT22;33997;53.278;9.708;2023-11-21T07:21:50;5.60;99.90
48208;DHT22;33997;53.278;9.708;2023-11-21T07:24:18;5.60;99.90
48208;DHT22;33997;53.278;9.708;2023-11-21T07:26:44;5.70;99.90
48208;DHT22;33997;53.278;9.708;2023-11-21T07:29:09;5.70;99.90
48208;DHT22;33997;53.278;9.708;2023-11-21T07:31:37;5.70;99.90
48208;DHT22;33997;53.278;9.708;2023-11-21T07:34:03;5.70;99.90
48208;DHT22;33997;53.278;9.708;2023-11-21T07:36:28;5.70;99.90
48208;DHT22;33997;53.278;9.708;2023-11-21T07:38:54;5.70;99.90
48208;DHT22;33997;53.278;9.708;2023-11-21T07:41:20;5.70;99.90
48208;DHT22;33997;53.278;9.708;2023-11-21T07:43:46;5.70;99.90
48208;DHT22;33997;53.278;9.708;2023-11-21T07:46:12;5.70;99.90
48208;DHT22;33997;53.278;9.708;2023-11-21T07:48:39;5.70;99.90
48208;DHT22;33997;53.278;9.708;2023-11-21T07:51:05;5.80;99.90
48208;DHT22;33997;53.278;9.708;2023-11-21T07:53:31;5.80;99.90
48208;DHT22;33997;53.278;9.708;2023-11-21T07:55:57;5.80;99.90
48208;DHT22;33997;53.278;9.708;2023-11-21T07:58:23;5.80;99.90
48208;DHT22;33997;53.278;9.708;2023-11-21T08:00:49;5.90;99.90
48208;DHT22;33997;53.278;9.708;2023-11-21T08:03:15;5.90;99.90
48208;DHT22;33997;53.278;9.708;2023-11-21T08:05:41;5.90;99.90
48208;DHT22;33997;53.278;9.708;2023-11-21T08:08:07;6.00;99.90
48208;DHT22;33997;53.278;9.708;2023-11-21T08:10:33;6.00;99.90
48208;DHT22;33997;53.278;9.708;2023-11-21T08:12:58;6.10;99.90
48208;DHT22;33997;53.278;9.708;2023-11-21T08:15:24;6.10;99.90
48208;DHT22;33997;53.278;9.708;2023-11-21T08:17:49;6.10;99.90
48208;DHT22;33997;53.278;9.708;2023-11-21T08:20:15;6.10;99.90
48208;DHT22;33997;53.278;9.708;2023-11-21T08:22:42;6.10;99.90
48208;DHT22;33997;53.278;9.708;2023-11-21T08:25:08;6.10;99.90
48208;DHT22;33997;53.278;9.708;2023-11-21T08:27:40;6.10;99.90
48208;DHT22;33997;53.278;9.708;2023-11-21T08:30:06;6.20;99.90
48208;DHT22;33997;53.278;9.708;2023-11-21T08:32:32;6.30;99.90
48208;DHT22;33997;53.278;9.708;2023-11-21T08:34:59;6.30;99.90
48208;DHT22;33997;53.278;9.708;2023-11-21T08:37:24;6.30;99.90
48208;DHT22;33997;53.278;9.708;2023-11-21T08:39:52;6.30;99.90
48208;DHT22;33997;53.278;9.708;2023-11-21T08:42:18;6.40;99.90
48208;DHT22;33997;53.278;9.708;2023-11-21T08:44:44;6.40;99.90
48208;DHT22;33997;53.278;9.708;2023-11-21T08:47:09;6.50;99.90
48208;DHT22;33997;53.278;9.708;2023-11-21T08:49:35;6.50;99.90
48208;DHT22;33997;53.278;9.708;2023-11-21T08:52:00;6.60;99.90
48208;DHT22;33997;53.278;9.708;2023-11-21T08:54:26;6.70;99.90
48208;DHT22;33997;53.278;9.708;2023-11-21T08:56:52;6.70;99.90
48208;DHT22;33997;53.278;9.708;2023-11-21T08:59:18;6.70;99.90
48208;DHT22;33997;53.278;9.708;2023-11-21T09:01:45;6.70;99.90
48208;DHT22;33997;53.278;9.708;2023-11-21T09:04:10;6.80;99.90
48208;DHT22;33997;53.278;9.708;2023-11-21T09:06:36;6.70;99.90
48208;DHT22;33997;53.278;9.708;2023-11-21T09:09:01;6.80;99.90
48208;DHT22;33997;53.278;9.708;2023-11-21T09:11:27;6.80;99.90
48208;DHT22;33997;53.278;9.708;2023-11-21T09:13:59;6.80;99.90
48208;DHT22;33997;53.278;9.708;2023-11-21T09:16:24;6.80;99.90
48208;DHT22;33997;53.278;9.708;2023-11-21T09:18:50;6.80;99.90
48208;DHT22;33997;53.278;9.708;2023-11-21T09:21:15;6.80;99.90
48208;DHT22;33997;53.278;9.708;2023-11-21T09:23:42;6.90;99.90
48208;DHT22;33997;53.278;9.708;2023-11-21T09:26:08;7.00;99.90
48208;DHT22;33997;53.278;9.708;2023-11-21T09:28:33;7.00;99.90
48208;DHT22;33997;53.278;9.708;2023-11-21T09:31:00;6.90;99.80
48208;DHT22;33997;53.278;9.708;2023-11-21T09:33:28;7.00;99.80
48208;DHT22;33997;53.278;9.708;2023-11-21T09:35:55;7.10;99.80
48208;DHT22;33997;53.278;9.708;2023-11-21T09:38:21;7.10;99.70
48208;DHT22;33997;53.278;9.708;2023-11-21T09:40:46;7.20;99.80
48208;DHT22;33997;53.278;9.708;2023-11-21T09:43:16;7.20;99.80
48208;DHT22;33997;53.278;9.708;2023-11-21T09:45:45;7.20;99.70
48208;DHT22;33997;53.278;9.708;2023-11-21T09:48:13;7.20;99.60
48208;DHT22;33997;53.278;9.708;2023-11-21T09:50:39;7.20;99.50
48208;DHT22;33997;53.278;9.708;2023-11-21T09:53:22;7.20;99.50
48208;DHT22;33997;53.278;9.708;2023-11-21T09:55:53;7.20;99.30
48208;DHT22;33997;53.278;9.708;2023-11-21T09:58:20;7.30;99.30
48208;DHT22;33997;53.278;9.708;2023-11-21T10:00:49;7.30;99.30
48208;DHT22;33997;53.278;9.708;2023-11-21T10:03:15;7.40;99.20
48208;DHT22;33997;53.278;9.708;2023-11-21T10:05:42;7.50;99.20
48208;DHT22;33997;53.278;9.708;2023-11-21T10:08:10;7.50;98.90
48208;DHT22;33997;53.278;9.708;2023-11-21T10:10:37;7.50;98.70
48208;DHT22;33997;53.278;9.708;2023-11-21T10:13:06;7.50;98.30
48208;DHT22;33997;53.278;9.708;2023-11-21T10:15:34;7.70;98.60
48208;DHT22;33997;53.278;9.708;2023-11-21T10:18:05;7.70;98.70
48208;DHT22;33997;53.278;9.708;2023-11-21T10:20:32;7.60;98.20
48208;DHT22;33997;53.278;9.708;2023-11-21T10:22:59;7.60;98.00
48208;DHT22;33997;53.278;9.708;2023-11-21T10:25:27;7.50;97.20
48208;DHT22;33997;53.278;9.708;2023-11-21T10:27:58;7.50;97.50
48208;DHT22;33997;53.278;9.708;2023-11-21T10:30:33;7.60;97.40
48208;DHT22;33997;53.278;9.708;2023-11-21T10:32:59;7.60;97.70
48208;DHT22;33997;53.278;9.708;2023-11-21T10:38:12;7.60;97.30
48208;DHT22;33997;53.278;9.708;2023-11-21T10:40:42;7.70;97.20
48208;DHT22;33997;53.278;9.708;2023-11-21T10:43:08;7.70;97.30
48208;DHT22;33997;53.278;9.708;2023-11-21T10:45:41;7.70;97.00
48208;DHT22;33997;53.278;9.708;2023-11-21T10:48:08;7.80;97.50
48208;DHT22;33997;53.278;9.708;2023-11-21T10:50:35;7.70;97.30
48208;DHT22;33997;53.278;9.708;2023-11-21T10:53:02;7.70;97.50
48208;DHT22;33997;53.278;9.708;2023-11-21T10:55:29;7.60;97.40
48208;DHT22;33997;53.278;9.708;2023-11-21T10:57:59;7.60;97.30
48208;DHT22;33997;53.278;9.708;2023-11-21T11:00:26;7.60;97.50
48208;DHT22;33997;53.278;9.708;2023-11-21T11:02:53;7.50;97.20
48208;DHT22;33997;53.278;9.708;2023-11-21T11:05:29;7.50;97.20
48208;DHT22;33997;53.278;9.708;2023-11-21T11:08:05;7.50;97.10
48208;DHT22;33997;53.278;9.708;2023-11-21T11:10:32;7.60;97.00
48208;DHT22;33997;53.278;9.708;2023-11-21T11:12:59;7.70;97.20
48208;DHT22;33997;53.278;9.708;2023-11-21T11:15:25;7.80;97.50
48208;DHT22;33997;53.278;9.708;2023-11-21T11:17:52;7.80;97.20
48208;DHT22;33997;53.278;9.708;2023-11-21T11:20:23;7.90;97.10
48208;DHT22;33997;53.278;9.708;2023-11-21T11:26:06;8.10;96.90
48208;DHT22;33997;53.278;9.708;2023-11-21T11:29:00;8.10;96.70
48208;DHT22;33997;53.278;9.708;2023-11-21T11:31:40;8.10;96.90
48208;DHT22;33997;53.278;9.708;2023-11-21T11:34:29;8.10;96.50
48208;DHT22;33997;53.278;9.708;2023-11-21T11:37:02;8.10;96.60
48208;DHT22;33997;53.278;9.708;2023-11-21T11:39:36;8.00;95.80
48208;DHT22;33997;53.278;9.708;2023-11-21T11:42:03;8.00;96.40
48208;DHT22;33997;53.278;9.708;2023-11-21T11:47:14;8.00;96.70
48208;DHT22;33997;53.278;9.708;2023-11-21T11:52:40;8.00;96.50
48208;DHT22;33997;53.278;9.708;2023-11-21T11:55:08;8.10;96.40
48208;DHT22;33997;53.278;9.708;2023-11-21T11:57:35;8.00;95.90
48208;DHT22;33997;53.278;9.708;2023-11-21T12:00:19;8.00;96.00
48208;DHT22;33997;53.278;9.708;2023-11-21T12:02:54;8.00;96.20
48208;DHT22;33997;53.278;9.708;2023-11-21T12:05:22;7.90;96.20
48208;DHT22;33997;53.278;9.708;2023-11-21T12:07:50;8.00;96.30
48208;DHT22;33997;53.278;9.708;2023-11-21T12:10:20;8.00;96.70
48208;DHT22;33997;53.278;9.708;2023-11-21T12:12:47;8.00;96.60
48208;DHT22;33997;53.278;9.708;2023-11-21T12:15:13;7.80;96.00
48208;DHT22;33997;53.278;9.708;2023-11-21T12:17:42;7.70;95.90
48208;DHT22;33997;53.278;9.708;2023-11-21T12:20:15;7.70;96.00
48208;DHT22;33997;53.278;9.708;2023-11-21T12:22:56;7.60;95.40
48208;DHT22;33997;53.278;9.708;2023-11-21T12:25:25;7.60;96.10
48208;DHT22;33997;53.278;9.708;2023-11-21T12:27:55;7.60;96.40
48208;DHT22;33997;53.278;9.708;2023-11-21T12:30:22;7.60;96.40
48208;DHT22;33997;53.278;9.708;2023-11-21T12:32:49;7.70;96.80
48208;DHT22;33997;53.278;9.708;2023-11-21T12:35:17;7.70;96.10
48208;DHT22;33997;53.278;9.708;2023-11-21T12:37:45;7.70;96.40
48208;DHT22;33997;53.278;9.708;2023-11-21T12:40:11;7.70;96.20
48208;DHT22;33997;53.278;9.708;2023-11-21T12:42:41;7.80;96.60
48208;DHT22;33997;53.278;9.708;2023-11-21T12:47:55;7.70;96.60
48208;DHT22;33997;53.278;9.708;2023-11-21T12:50:23;7.50;95.90
48208;DHT22;33997;53.278;9.708;2023-11-21T12:52:50;7.50;96.40
48208;DHT22;33997;53.278;9.708;2023-11-21T12:55:17;7.60;96.50
48208;DHT22;33997;53.278;9.708;2023-11-21T12:57:47;7.50;96.10
48208;DHT22;33997;53.278;9.708;2023-11-21T13:00:16;7.40;95.90
48208;DHT22;33997;53.278;9.708;2023-11-21T13:02:55;7.30;96.00
48208;DHT22;33997;53.278;9.708;2023-11-21T13:05:33;7.30;96.40
48208;DHT22;33997;53.278;9.708;2023-11-21T13:08:00;7.20;96.90
48208;DHT22;33997;53.278;9.708;2023-11-21T13:10:29;7.10;97.00
48208;DHT22;33997;53.278;9.708;2023-11-21T13:12:57;7.20;97.30
48208;DHT22;33997;53.278;9.708;2023-11-21T13:15:24;7.20;97.30
48208;DHT22;33997;53.278;9.708;2023-11-21T13:17:50;7.20;97.20
48208;DHT22;33997;53.278;9.708;2023-11-21T13:20:17;7.20;97.10
48208;DHT22;33997;53.278;9.708;2023-11-21T13:22:53;7.20;97.10
48208;DHT22;33997;53.278;9.708;2023-11-21T13:25:29;7.20;96.70
48208;DHT22;33997;53.278;9.708;2023-11-21T13:27:58;7.20;96.60
48208;DHT22;33997;53.278;9.708;2023-11-21T13:30:27;7.10;96.80
48208;DHT22;33997;53.278;9.708;2023-11-21T13:33:05;7.10;96.40
48208;DHT22;33997;53.278;9.708;2023-11-21T13:35:35;7.10;96.70
48208;DHT22;33997;53.278;9.708;2023-11-21T13:38:09;7.00;96.70
48208;DHT22;33997;53.278;9.708;2023-11-21T13:40:36;7.00;96.50
48208;DHT22;33997;53.278;9.708;2023-11-21T13:43:10;6.90;96.60
48208;DHT22;33997;53.278;9.708;2023-11-21T13:45:37;6.90;96.50
48208;DHT22;33997;53.278;9.708;2023-11-21T13:48:05;6.90;96.50
48208;DHT22;33997;53.278;9.708;2023-11-21T13:50:33;7.00;96.80
48208;DHT22;33997;53.278;9.708;2023-11-21T13:52:59;6.90;96.50
48208;DHT22;33997;53.278;9.708;2023-11-21T13:55:30;6.90;96.10
48208;DHT22;33997;53.278;9.708;2023-11-21T13:57:56;6.80;96.00
48208;DHT22;33997;53.278;9.708;2023-11-21T14:00:21;6.90;96.60
48208;DHT22;33997;53.278;9.708;2023-11-21T14:03:05;6.90;96.40
48208;DHT22;33997;53.278;9.708;2023-11-21T14:05:36;6.80;96.20
48208;DHT22;33997;53.278;9.708;2023-11-21T14:08:01;6.80;96.10
48208;DHT22;33997;53.278;9.708;2023-11-21T14:10:31;6.70;96.20
48208;DHT22;33997;53.278;9.708;2023-11-21T14:13:06;6.60;95.80
48208;DHT22;33997;53.278;9.708;2023-11-21T14:15:32;6.60;95.60
48208;DHT22;33997;53.278;9.708;2023-11-21T14:17:59;6.60;95.80
48208;DHT22;33997;53.278;9.708;2023-11-21T14:20:25;6.50;96.00
48208;DHT22;33997;53.278;9.708;2023-11-21T14:22:50;6.50;96.00
48208;DHT22;33997;53.278;9.708;2023-11-21T14:25:16;6.50;96.20
48208;DHT22;33997;53.278;9.708;2023-11-21T14:27:43;6.40;96.30
48208;DHT22;33997;53.278;9.708;2023-11-21T14:30:09;6.40;96.20
48208;DHT22;33997;53.278;9.708;2023-11-21T14:32:37;6.40;96.40
48208;DHT22;33997;53.278;9.708;2023-11-21T14:35:03;6.30;96.80
48208;DHT22;33997;53.278;9.708;2023-11-21T14:37:29;6.30;96.90
48208;DHT22;33997;53.278;9.708;2023-11-21T14:39:54;6.30;97.10
48208;DHT22;33997;53.278;9.708;2023-11-21T14:42:21;6.30;97.20
48208;DHT22;33997;53.278;9.708;2023-11-21T14:44:50;6.30;97.40
48208;DHT22;33997;53.278;9.708;2023-11-21T14:47:17;6.30;97.50
48208;DHT22;33997;53.278;9.708;2023-11-21T14:49:45;6.20;97.70
48208;DHT22;33997;53.278;9.708;2023-11-21T14:52:20;6.20;97.60
48208;DHT22;33997;53.278;9.708;2023-11-21T14:55:00;6.10;97.50
48208;DHT22;33997;53.278;9.708;2023-11-21T14:57:45;6.10;97.60
48208;DHT22;33997;53.278;9.708;2023-11-21T15:00:18;6.10;97.70
48208;DHT22;33997;53.278;9.708;2023-11-21T15:03:17;6.10;97.90
48208;DHT22;33997;53.278;9.708;2023-11-21T15:06:01;6.10;97.90
48208;DHT22;33997;53.278;9.708;2023-11-21T15:08:48;6.00;97.70
48208;DHT22;33997;53.278;9.708;2023-11-21T15:11:18;6.00;97.90
48208;DHT22;33997;53.278;9.708;2023-11-21T15:13:44;6.00;97.90
48208;DHT22;33997;53.278;9.708;2023-11-21T15:16:10;5.90;97.90
48208;DHT22;33997;53.278;9.708;2023-11-21T15:18:37;5.90;98.00
48208;DHT22;33997;53.278;9.708;2023-11-21T15:21:03;5.90;98.10
48208;DHT22;33997;53.278;9.708;2023-11-21T15:23:29;5.80;98.20
48208;DHT22;33997;53.278;9.708;2023-11-21T15:25:56;5.90;98.30
48208;DHT22;33997;53.278;9.708;2023-11-21T15:28:23;5.80;98.40
48208;DHT22;33997;53.278;9.708;2023-11-21T15:30:49;5.80;98.40
48208;DHT22;33997;53.278;9.708;2023-11-21T15:33:16;5.80;98.50
48208;DHT22;33997;53.278;9.708;2023-11-21T15:35:42;5.70;98.60
48208;DHT22;33997;53.278;9.708;2023-11-21T15:38:08;5.70;98.60
48208;DHT22;33997;53.278;9.708;2023-11-21T15:40:34;5.70;98.70
48208;DHT22;33997;53.278;9.708;2023-11-21T15:42:59;5.70;98.90
48208;DHT22;33997;53.278;9.708;2023-11-21T15:45:25;5.60;98.70
48208;DHT22;33997;53.278;9.708;2023-11-21T15:47:51;5.60;98.80
48208;DHT22;33997;53.278;9.708;2023-11-21T15:50:18;5.60;99.00
48208;DHT22;33997;53.278;9.708;2023-11-21T15:52:43;5.60;98.90
48208;DHT22;33997;53.278;9.708;2023-11-21T15:55:09;5.60;98.90
48208;DHT22;33997;53.278;9.708;2023-11-21T15:57:35;5.60;98.90
48208;DHT22;33997;53.278;9.708;2023-11-21T16:00:00;5.60;98.90